createdAt,value
2022-10-05T00:01:34.459Z,1.50
2022-10-05T00:04:15.456Z,1.70
2022-10-05T00:06:44.850Z,1.52
2022-10-05T00:09:23.059Z,1.50
2022-10-05T00:11:51.322Z,1.40
2022-10-05T00:14:33.265Z,1.60
2022-10-05T00:17:01.453Z,2.00
2022-10-05T00:19:33.293Z,1.73
2022-10-05T00:22:11.765Z,1.70
2022-10-05T00:24:38.720Z,1.67
2022-10-05T00:27:18.165Z,1.40
2022-10-05T00:29:46.476Z,1.70
2022-10-05T00:32:13.810Z,1.52
2022-10-05T00:34:42.259Z,1.60
2022-10-05T00:37:10.035Z,1.73
2022-10-05T00:39:39.456Z,2.15
2022-10-05T00:42:34.137Z,1.58
2022-10-05T00:45:16.086Z,1.60
2022-10-05T00:47:58.270Z,1.60
2022-10-05T00:50:28.558Z,1.73
2022-10-05T00:53:13.927Z,1.75
2022-10-05T00:55:50.145Z,1.65
2022-10-05T00:58:38.626Z,1.83
2022-10-05T01:01:12.983Z,2.42
2022-10-05T01:04:01.077Z,2.05
2022-10-05T01:06:58.910Z,2.42
2022-10-05T01:09:43.793Z,2.83
2022-10-05T01:12:42.424Z,2.25
2022-10-05T01:15:31.040Z,1.80
2022-10-05T01:18:20.822Z,1.92
2022-10-05T01:20:59.953Z,2.08
2022-10-05T01:23:59.063Z,2.00
2022-10-05T01:26:29.030Z,2.00
2022-10-05T01:29:05.462Z,2.10
2022-10-05T01:31:53.913Z,2.03
2022-10-05T01:34:41.421Z,2.30
2022-10-05T01:37:35.950Z,2.00
2022-10-05T01:40:22.035Z,2.10
2022-10-05T01:43:18.092Z,2.10
2022-10-05T01:46:00.287Z,1.73
2022-10-05T01:48:52.148Z,1.30
2022-10-05T01:51:40.957Z,1.88
2022-10-05T01:54:22.669Z,2.00
2022-10-05T01:57:22.742Z,1.48
2022-10-05T02:00:11.499Z,1.60
2022-10-05T02:03:22.080Z,1.60
2022-10-05T02:05:55.659Z,1.70
2022-10-05T02:08:47.316Z,1.70
2022-10-05T02:11:15.332Z,1.70
2022-10-05T02:13:49.036Z,1.83
2022-10-05T02:16:16.897Z,2.13
2022-10-05T02:18:52.693Z,3.50
2022-10-05T02:21:21.658Z,1.83
2022-10-05T02:23:52.749Z,2.33
2022-10-05T02:26:21.373Z,1.58
2022-10-05T02:28:53.713Z,2.00
2022-10-05T02:31:36.355Z,1.45
2022-10-05T02:36:57.137Z,2.25
2022-10-05T02:39:28.178Z,2.28
2022-10-05T02:42:19.896Z,2.00
2022-10-05T02:45:10.692Z,1.77
2022-10-05T02:47:43.499Z,1.75
2022-10-05T02:50:16.559Z,1.98
2022-10-05T02:53:00.374Z,1.80
2022-10-05T02:55:45.872Z,1.80
2022-10-05T02:58:17.774Z,2.47
2022-10-05T03:01:20.584Z,2.85
2022-10-05T03:04:07.814Z,1.40
2022-10-05T03:06:50.632Z,2.53
2022-10-05T03:09:21.598Z,1.90
2022-10-05T03:12:11.859Z,1.60
2022-10-05T03:14:53.985Z,1.63
2022-10-05T03:17:40.614Z,1.63
2022-10-05T03:20:10.769Z,3.05
2022-10-05T03:23:13.764Z,2.65
2022-10-05T03:25:49.617Z,1.90
2022-10-05T03:28:31.079Z,2.00
2022-10-05T03:31:10.306Z,1.90
2022-10-05T03:33:37.443Z,1.73
2022-10-05T03:36:29.234Z,2.30
2022-10-05T03:38:59.115Z,2.67
2022-10-05T03:41:49.796Z,2.45
2022-10-05T03:44:42.728Z,4.53
2022-10-05T03:47:27.614Z,4.82
2022-10-05T03:52:51.604Z,2.63
2022-10-05T03:55:41.345Z,2.42
2022-10-05T03:58:38.948Z,1.70
2022-10-05T04:01:12.332Z,1.80
2022-10-05T04:03:44.912Z,2.08
2022-10-05T04:06:22.480Z,2.78
2022-10-05T04:08:59.339Z,1.48
2022-10-05T04:11:35.555Z,2.03
2022-10-05T04:14:28.759Z,2.25
2022-10-05T04:17:03.154Z,3.03
2022-10-05T04:19:44.287Z,1.52
2022-10-05T04:22:19.548Z,2.53
2022-10-05T04:27:24.459Z,1.92
2022-10-05T04:30:14.673Z,2.80
2022-10-05T04:32:48.748Z,3.45
2022-10-05T04:35:28.806Z,2.55
2022-10-05T04:37:58.910Z,3.35
2022-10-05T04:40:48.037Z,1.98
2022-10-05T04:43:25.185Z,3.55
2022-10-05T04:46:01.658Z,5.18
2022-10-05T04:48:37.337Z,3.15
2022-10-05T04:51:52.318Z,4.05
2022-10-05T04:55:08.868Z,4.00
2022-10-05T04:57:54.295Z,4.97
2022-10-05T05:00:37.531Z,5.00
2022-10-05T05:03:18.734Z,3.55
2022-10-05T05:06:16.488Z,3.20
2022-10-05T05:09:07.095Z,3.40
2022-10-05T05:11:45.582Z,1.95
2022-10-05T05:14:36.968Z,2.65
2022-10-05T05:17:25.379Z,5.53
2022-10-05T05:20:22.219Z,6.68
2022-10-05T05:23:14.332Z,2.78
2022-10-05T05:26:06.551Z,3.00
2022-10-05T05:28:59.938Z,2.70
2022-10-05T05:31:40.812Z,2.63
2022-10-05T05:34:38.256Z,2.00
2022-10-05T05:37:49.567Z,2.97
2022-10-05T05:40:40.368Z,2.75
2022-10-05T05:43:23.402Z,2.10
2022-10-05T05:46:00.716Z,3.20
2022-10-05T05:48:38.908Z,2.22
2022-10-05T05:51:35.409Z,2.28
2022-10-05T05:54:27.662Z,4.30
2022-10-05T05:56:58.634Z,3.40
2022-10-05T05:59:32.597Z,3.10
2022-10-05T06:02:10.764Z,2.70
2022-10-05T06:04:50.571Z,3.78
2022-10-05T06:07:30.212Z,4.05
2022-10-05T06:10:25.079Z,3.63
2022-10-05T06:13:05.515Z,4.32
2022-10-05T06:15:43.214Z,3.47
2022-10-05T06:18:14.285Z,2.60
2022-10-05T06:21:12.985Z,2.67
2022-10-05T06:24:17.543Z,2.10
2022-10-05T06:27:19.757Z,1.85
2022-10-05T06:30:08.854Z,2.95
2022-10-05T06:32:50.408Z,4.93
2022-10-05T06:35:38.802Z,5.80
2022-10-05T06:38:28.401Z,5.43
2022-10-05T06:41:13.693Z,5.95
2022-10-05T06:44:04.102Z,4.90
2022-10-05T06:46:45.955Z,5.97
2022-10-05T06:49:44.738Z,5.93
2022-10-05T06:53:20.938Z,4.97
2022-10-05T06:56:00.191Z,3.88
2022-10-05T06:58:39.547Z,4.68
2022-10-05T07:01:16.191Z,3.70
2022-10-05T07:04:21.039Z,4.35
2022-10-05T07:07:07.848Z,5.35
2022-10-05T07:10:00.777Z,4.78
2022-10-05T07:12:44.073Z,4.30
2022-10-05T07:15:30.345Z,2.58
2022-10-05T07:18:12.533Z,2.08
2022-10-05T07:20:49.669Z,3.17
2022-10-05T07:23:29.885Z,1.55
2022-10-05T07:26:15.812Z,1.63
2022-10-05T07:28:55.560Z,2.20
2022-10-05T07:31:22.606Z,2.08
2022-10-05T07:34:07.664Z,1.58
2022-10-05T07:39:59.127Z,1.67
2022-10-05T07:42:52.139Z,1.88
2022-10-05T07:45:26.181Z,1.45
2022-10-05T07:47:56.821Z,1.45
2022-10-05T07:50:36.929Z,1.80
2022-10-05T07:53:21.267Z,1.50
2022-10-05T07:55:53.799Z,1.58
2022-10-05T07:58:58.787Z,2.08
2022-10-05T08:01:34.322Z,0.90
2022-10-05T08:04:06.088Z,1.38
2022-10-05T08:06:56.738Z,1.40
2022-10-05T08:09:29.692Z,0.98
2022-10-05T08:12:10.630Z,1.30
2022-10-05T08:14:57.317Z,1.52
2022-10-05T08:17:39.402Z,1.45
2022-10-05T08:20:18.569Z,1.38
2022-10-05T08:22:57.258Z,1.30
2022-10-05T08:25:37.178Z,1.50
2022-10-05T08:28:35.993Z,1.05
2022-10-05T08:31:24.206Z,1.25
2022-10-05T08:34:12.120Z,1.77
2022-10-05T08:36:39.022Z,1.13
2022-10-05T08:39:18.958Z,1.20
2022-10-05T08:42:04.667Z,0.80
2022-10-05T08:45:03.492Z,0.98
2022-10-05T08:47:46.168Z,1.05
2022-10-05T08:50:25.344Z,1.13
2022-10-05T08:53:12.343Z,1.55
2022-10-05T08:56:17.667Z,0.80
2022-10-05T08:59:20.325Z,1.00
2022-10-05T09:02:04.167Z,1.25
2022-10-05T09:04:58.613Z,0.82
2022-10-05T09:07:53.538Z,0.80
2022-10-05T09:10:48.042Z,0.73
2022-10-05T09:13:26.456Z,1.23
2022-10-05T09:16:17.170Z,1.10
2022-10-05T09:19:06.415Z,2.83
2022-10-05T09:21:52.069Z,1.45
2022-10-05T09:24:39.530Z,0.63
2022-10-05T09:27:17.304Z,1.02
2022-10-05T09:30:20.355Z,1.35
2022-10-05T09:33:14.796Z,1.10
2022-10-05T09:36:02.159Z,1.20
2022-10-05T09:39:06.701Z,1.50
2022-10-05T09:42:18.100Z,1.15
2022-10-05T09:45:12.476Z,1.77
2022-10-05T09:47:55.507Z,0.90
2022-10-05T09:50:41.783Z,1.10
2022-10-05T09:53:40.790Z,1.05
2022-10-05T09:56:09.222Z,0.82
2022-10-05T09:58:57.521Z,0.93
2022-10-05T10:01:49.118Z,0.90
2022-10-05T10:04:19.236Z,0.88
2022-10-05T10:07:22.714Z,1.10
2022-10-05T10:09:55.566Z,0.98
2022-10-05T10:12:41.100Z,0.82
2022-10-05T10:15:26.499Z,1.10
2022-10-05T10:18:17.058Z,1.13
2022-10-05T10:20:46.712Z,0.68
2022-10-05T10:23:45.861Z,0.90
2022-10-05T10:26:38.866Z,0.50
2022-10-05T10:29:43.110Z,0.60
2022-10-05T10:32:38.055Z,0.68
2022-10-05T10:35:19.631Z,0.82
2022-10-05T10:38:08.221Z,0.93
2022-10-05T10:40:58.175Z,0.90
2022-10-05T10:43:31.043Z,1.33
2022-10-05T10:46:35.661Z,3.80
2022-10-05T10:49:31.876Z,0.90
2022-10-05T10:52:32.773Z,1.17
2022-10-05T10:55:14.385Z,1.20
2022-10-05T10:57:50.480Z,1.10
2022-10-05T11:00:22.559Z,0.90
2022-10-05T11:03:01.167Z,0.70
2022-10-05T11:05:31.156Z,0.90
2022-10-05T11:08:24.034Z,1.35
2022-10-05T11:11:20.128Z,1.00
2022-10-05T11:13:55.739Z,0.70
2022-10-05T11:16:59.793Z,0.60
2022-10-05T11:19:39.872Z,0.77
2022-10-05T11:22:46.113Z,0.90
2022-10-05T11:25:33.244Z,1.50
2022-10-05T11:28:28.058Z,1.40
2022-10-05T11:31:18.060Z,1.08
2022-10-05T11:34:04.106Z,1.08
2022-10-05T11:36:55.600Z,0.95
2022-10-05T11:39:53.054Z,1.10
2022-10-05T11:42:44.999Z,1.10
2022-10-05T11:45:21.851Z,1.30
2022-10-05T11:48:03.944Z,1.17
2022-10-05T11:50:47.702Z,1.15
2022-10-05T11:53:24.482Z,1.20
2022-10-05T11:55:57.865Z,0.90
2022-10-05T11:59:00.413Z,1.10
2022-10-05T12:01:46.165Z,0.95
2022-10-05T12:04:50.458Z,1.10
2022-10-05T12:07:32.303Z,1.20
2022-10-05T12:10:32.778Z,1.00
2022-10-05T12:13:39.706Z,1.13
2022-10-05T12:16:46.822Z,1.10
2022-10-05T12:19:29.748Z,0.85
2022-10-05T12:22:18.153Z,1.08
2022-10-05T12:24:44.992Z,0.80
2022-10-05T12:27:20.693Z,2.55
2022-10-05T12:29:56.455Z,0.95
2022-10-05T12:32:34.196Z,1.15
2022-10-05T12:35:29.717Z,1.50
2022-10-05T12:38:10.418Z,1.02
2022-10-05T12:40:59.151Z,1.10
2022-10-05T12:43:33.879Z,1.15
2022-10-05T12:46:31.627Z,1.20
2022-10-05T12:49:21.137Z,1.05
2022-10-05T12:52:09.212Z,0.70
2022-10-05T12:55:14.613Z,1.40
2022-10-05T12:57:44.473Z,1.95
2022-10-05T13:00:20.443Z,0.90
2022-10-05T13:02:53.377Z,1.42
2022-10-05T13:05:44.918Z,1.40
2022-10-05T13:08:36.598Z,0.75
2022-10-05T13:11:14.909Z,0.93
2022-10-05T13:13:42.089Z,0.75
2022-10-05T13:16:18.017Z,1.40
2022-10-05T13:18:59.043Z,1.13
2022-10-05T13:22:03.291Z,1.13
2022-10-05T13:24:35.824Z,1.10
2022-10-05T13:27:16.535Z,1.17
2022-10-05T13:30:06.306Z,0.70
2022-10-05T13:32:40.276Z,0.82
2022-10-05T13:35:11.367Z,0.90
2022-10-05T13:37:38.595Z,0.80
2022-10-05T13:40:28.839Z,0.80
2022-10-05T13:43:31.647Z,0.90
2022-10-05T13:46:05.664Z,1.00
2022-10-05T13:48:48.162Z,1.23
2022-10-05T13:51:29.646Z,1.40
2022-10-05T13:54:11.015Z,1.10
2022-10-05T13:56:42.996Z,1.13
2022-10-05T13:59:27.815Z,1.00
2022-10-05T14:02:02.435Z,0.98
2022-10-05T14:04:51.076Z,0.88
2022-10-05T14:07:34.642Z,1.35
2022-10-05T14:10:26.704Z,1.20
2022-10-05T14:12:54.882Z,1.92
2022-10-05T14:15:28.999Z,1.23
2022-10-05T14:17:56.185Z,1.95
2022-10-05T14:20:31.712Z,2.30
2022-10-05T14:23:11.187Z,1.63
2022-10-05T14:25:54.129Z,1.67
2022-10-05T14:28:34.486Z,3.35
2022-10-05T14:31:16.778Z,1.92
2022-10-05T14:33:44.218Z,1.27
2022-10-05T14:36:35.049Z,1.60
2022-10-05T14:39:05.093Z,2.42
2022-10-05T14:41:37.666Z,3.05
2022-10-05T14:44:13.338Z,2.25
2022-10-05T14:46:53.200Z,2.10
2022-10-05T14:49:23.072Z,1.48
2022-10-05T14:51:55.305Z,1.70
2022-10-05T14:54:43.949Z,1.90
2022-10-05T14:57:40.930Z,1.80
2022-10-05T15:00:16.703Z,2.10
2022-10-05T15:02:49.499Z,4.72
2022-10-05T15:05:19.541Z,1.95
2022-10-05T15:07:49.813Z,1.33
2022-10-05T15:10:44.043Z,3.30
2022-10-05T15:13:18.920Z,1.95
2022-10-05T15:21:09.205Z,3.97
2022-10-05T15:23:57.606Z,2.53
2022-10-05T15:26:50.672Z,1.85
2022-10-05T15:29:29.649Z,1.77
2022-10-05T15:32:25.471Z,1.85
2022-10-05T15:35:23.169Z,2.85
2022-10-05T15:38:05.007Z,2.92
2022-10-05T15:40:37.741Z,2.67
2022-10-05T15:43:12.830Z,2.05
2022-10-05T15:46:13.954Z,1.30
2022-10-05T15:48:58.862Z,3.20
2022-10-05T15:51:38.851Z,2.38
2022-10-05T15:54:39.692Z,1.55
2022-10-05T15:57:21.671Z,1.85
2022-10-05T16:00:00.753Z,1.95
2022-10-05T16:02:52.289Z,1.25
2022-10-05T16:06:05.634Z,1.92
2022-10-05T16:08:56.821Z,1.13
2022-10-05T16:12:00.733Z,1.30
2022-10-05T16:15:00.153Z,1.35
2022-10-05T16:17:42.210Z,1.65
2022-10-05T16:20:41.230Z,0.80
2022-10-05T16:23:55.472Z,1.10
2022-10-05T16:26:40.473Z,1.00
2022-10-05T16:29:14.669Z,1.58
2022-10-05T16:32:02.888Z,1.35
2022-10-05T16:34:53.712Z,1.83
2022-10-05T16:37:39.052Z,2.45
2022-10-05T16:40:28.462Z,1.70
2022-10-05T16:43:08.188Z,0.80
2022-10-05T16:46:15.350Z,0.90
2022-10-05T16:49:29.996Z,1.10
2022-10-05T16:51:59.358Z,1.35
2022-10-05T16:54:31.677Z,0.90
2022-10-05T16:57:39.421Z,1.00
2022-10-05T17:00:16.081Z,1.50
2022-10-05T17:03:01.807Z,1.10
2022-10-05T17:05:53.099Z,1.10
2022-10-05T17:08:33.566Z,1.33
2022-10-05T17:11:19.239Z,1.45
2022-10-05T17:14:07.347Z,1.23
2022-10-05T17:16:54.602Z,1.00
2022-10-05T17:19:40.211Z,1.38
2022-10-05T17:22:20.564Z,1.10
2022-10-05T17:25:04.929Z,1.20
2022-10-05T17:27:53.662Z,1.40
2022-10-05T17:30:59.506Z,1.17
2022-10-05T17:33:34.211Z,1.45
2022-10-05T17:36:04.818Z,1.20
2022-10-05T17:38:33.418Z,1.45
2022-10-05T17:41:00.349Z,1.00
2022-10-05T17:43:31.922Z,1.10
2022-10-05T17:46:07.089Z,1.98
2022-10-05T17:48:41.877Z,1.55
2022-10-05T17:51:53.593Z,1.20
2022-10-05T17:54:59.012Z,1.27
2022-10-05T17:57:28.067Z,1.45
2022-10-05T17:59:58.128Z,0.90
2022-10-05T18:02:38.610Z,1.40
2022-10-05T18:05:16.281Z,1.33
2022-10-05T18:07:48.830Z,1.20
2022-10-05T18:10:29.021Z,1.13
2022-10-05T18:12:59.178Z,1.30
2022-10-05T18:15:26.253Z,1.13
2022-10-05T18:17:58.773Z,1.77
2022-10-05T18:20:31.810Z,1.50
2022-10-05T18:23:07.686Z,1.40
2022-10-05T18:25:43.702Z,1.38
2022-10-05T18:28:36.756Z,1.27
2022-10-05T18:31:17.704Z,1.40
2022-10-05T18:34:22.052Z,1.27
2022-10-05T18:36:59.015Z,2.17
2022-10-05T18:39:55.696Z,1.80
2022-10-05T18:42:44.514Z,1.45
2022-10-05T18:45:26.705Z,1.50
2022-10-05T18:48:49.375Z,2.20
2022-10-05T18:51:29.784Z,2.05
2022-10-05T18:54:08.578Z,1.50
2022-10-05T18:56:41.196Z,1.52
2022-10-05T18:59:26.174Z,1.67
2022-10-05T19:02:11.423Z,1.40
2022-10-05T19:07:45.572Z,1.40
2022-10-05T19:10:25.481Z,1.40
2022-10-05T19:12:56.892Z,1.70
2022-10-05T19:16:03.330Z,1.65
2022-10-05T19:18:54.961Z,1.42
2022-10-05T19:21:25.250Z,1.40
2022-10-05T19:24:26.860Z,1.75
2022-10-05T19:27:14.698Z,1.65
2022-10-05T19:29:50.638Z,2.08
2022-10-05T19:32:30.687Z,1.83
2022-10-05T19:35:10.658Z,1.60
2022-10-05T19:38:09.610Z,1.73
2022-10-05T19:40:46.289Z,2.00
2022-10-05T19:43:34.838Z,1.92
2022-10-05T19:46:43.226Z,2.53
2022-10-05T19:49:13.462Z,1.92
2022-10-05T19:51:50.864Z,1.40
2022-10-05T19:54:29.911Z,2.28
2022-10-05T19:57:02.154Z,2.50
2022-10-05T19:59:34.720Z,1.92
2022-10-05T20:02:04.189Z,2.00
2022-10-05T20:04:39.159Z,1.80
2022-10-05T20:09:59.004Z,2.33
2022-10-05T20:12:51.956Z,1.90
2022-10-05T20:15:40.575Z,2.30
2022-10-05T20:19:03.418Z,2.55
2022-10-05T20:21:49.000Z,1.70
2022-10-05T20:24:29.773Z,1.85
2022-10-05T20:27:16.144Z,1.98
2022-10-05T20:29:44.846Z,1.85
2022-10-05T20:32:17.978Z,2.03
2022-10-05T20:34:46.990Z,2.33
2022-10-05T20:37:16.800Z,2.00
2022-10-05T20:39:44.615Z,2.30
2022-10-05T20:42:11.877Z,2.15
2022-10-05T20:44:39.027Z,1.85
2022-10-05T20:47:09.948Z,1.90
2022-10-05T20:49:39.178Z,1.77
2022-10-05T20:52:09.597Z,2.13
2022-10-05T20:54:37.761Z,1.88
2022-10-05T20:57:06.322Z,2.35
2022-10-05T20:59:34.240Z,1.90
2022-10-05T21:02:01.800Z,2.13
2022-10-05T21:04:40.268Z,2.35
2022-10-05T21:07:08.368Z,2.00
2022-10-05T21:09:38.020Z,2.08
2022-10-05T21:12:05.112Z,2.22
2022-10-05T21:14:34.471Z,2.88
2022-10-05T21:17:02.341Z,1.88
2022-10-05T21:19:29.904Z,1.70
2022-10-05T21:21:59.751Z,2.55
2022-10-05T21:24:26.667Z,3.10
2022-10-05T21:26:56.922Z,1.77
2022-10-05T21:29:23.901Z,1.50
2022-10-05T21:31:51.235Z,1.38
2022-10-05T21:34:18.286Z,1.58
2022-10-05T21:36:45.296Z,2.03
2022-10-05T21:39:12.323Z,1.30
2022-10-05T21:41:39.206Z,1.58
2022-10-05T21:44:06.832Z,1.52
2022-10-05T21:46:36.366Z,1.33
2022-10-05T21:49:03.568Z,1.50
2022-10-05T21:51:30.480Z,1.63
2022-10-05T21:54:01.971Z,1.60
2022-10-05T21:56:35.646Z,2.03
2022-10-05T21:59:06.527Z,1.65
2022-10-05T22:01:36.134Z,1.38
2022-10-05T22:04:04.465Z,1.70
2022-10-05T22:06:32.191Z,1.30
2022-10-05T22:08:59.882Z,1.50
2022-10-05T22:11:28.078Z,1.65
2022-10-05T22:14:01.763Z,2.00
2022-10-05T22:16:31.750Z,1.65
2022-10-05T22:19:02.647Z,1.65
2022-10-05T22:21:30.182Z,1.65
2022-10-05T22:23:57.267Z,1.17
2022-10-05T22:26:24.915Z,1.65
2022-10-05T22:28:55.558Z,1.80
2022-10-05T22:31:23.224Z,2.88
2022-10-05T22:33:50.291Z,2.15
2022-10-05T22:36:17.653Z,1.88
2022-10-05T22:38:46.604Z,2.00
2022-10-05T22:41:14.973Z,1.52
2022-10-05T22:43:41.968Z,2.83
2022-10-05T22:46:12.250Z,1.30
2022-10-05T22:48:40.170Z,1.67
2022-10-05T22:51:07.919Z,2.20
2022-10-05T22:53:35.462Z,1.60
2022-10-05T22:56:15.145Z,1.50
2022-10-05T22:58:43.312Z,1.63
2022-10-05T23:01:12.659Z,1.60
2022-10-05T23:03:39.657Z,1.63
2022-10-05T23:06:09.221Z,1.40
2022-10-05T23:08:37.580Z,1.63
2022-10-05T23:11:09.524Z,1.80
2022-10-05T23:13:36.737Z,1.60
2022-10-05T23:16:12.379Z,1.75
2022-10-05T23:18:40.095Z,1.33
2022-10-05T23:21:08.958Z,1.35
2022-10-05T23:23:47.606Z,1.27
2022-10-05T23:26:16.113Z,1.42
2022-10-05T23:28:47.375Z,1.42
2022-10-05T23:31:20.802Z,1.67
2022-10-05T23:33:47.966Z,1.70
2022-10-05T23:36:18.020Z,2.25
2022-10-05T23:38:45.555Z,1.30
2022-10-05T23:41:13.117Z,1.67
2022-10-05T23:43:40.611Z,2.38
2022-10-05T23:46:08.155Z,2.72
2022-10-05T23:48:38.393Z,1.33
2022-10-05T23:51:10.571Z,1.70
2022-10-05T23:53:37.936Z,1.83
2022-10-05T23:56:05.540Z,1.67
2022-10-05T23:58:32.663Z,1.05
